This is the latest recevied weather packets stored in our database for station/object W4CKA. If no packets are shown the sender has not sent any weather packets the latest 10 day(s).
| Time | Temp. | Humidity | Pressure | Rain* | Wind** | Luminosity | Snow |
|---|---|---|---|---|---|---|---|
| 1777416545 | 23.33° C | 75% | 1058.2 hPa | 0 mm | - | 121 W/m² | - |
| 1777415940 | 23.33° C | 75% | 1057.9 hPa | 0 mm | - | 138 W/m² | - |
| 1777415338 | 23.89° C | 76% | 1057.8 hPa | 0 mm | - | 179 W/m² | - |
| 1777414737 | 22.78° C | 77% | 1057.8 hPa | 0 mm | - | 215 W/m² | - |
| 1777414133 | 21.67° C | 82% | 1057.6 hPa | 0 mm | - | 135 W/m² | - |
| 1777413531 | 21.67° C | 82% | 1057.6 hPa | 0 mm | - | 132 W/m² | - |
| 1777412928 | 21.67° C | 81% | 1057.7 hPa | 0 mm | - | 102 W/m² | - |
| 1777412324 | 22.22° C | 79% | 1057.9 hPa | 0 mm | - | 135 W/m² | - |
| 1777411725 | 22.22° C | 78% | 1058.5 hPa | 0 mm | - | 124 W/m² | - |
| 1777411120 | 21.67° C | 79% | 1058.6 hPa | 0 mm | - | 148 W/m² | - |
| 1777410519 | 22.22° C | 78% | 1059 hPa | 0 mm | - | 143 W/m² | - |
| 1777409914 | 23.89° C | 76% | 1059 hPa | 0 mm | - | 470 W/m² | - |
| 1777409311 | 22.78° C | 75% | 1058.9 hPa | 0 mm | - | 165 W/m² | - |
| 1777408710 | 23.33° C | 75% | 1059.4 hPa | 0 mm | - | 617 W/m² | - |
| 1777408106 | 22.78° C | 75% | 1059.8 hPa | 0 mm | - | 267 W/m² | - |
| 1777407504 | 22.78° C | 77% | 1059.7 hPa | 0 mm | - | 327 W/m² | - |
| 1777406900 | 21.67° C | 78% | 1059.8 hPa | 0 mm | - | 289 W/m² | - |
| 1777406297 | 21.11° C | 80% | 1059.9 hPa | 0 mm | - | 196 W/m² | - |
| 1777405693 | 20.56° C | 80% | 1059.9 hPa | 0 mm | - | 131 W/m² | - |
| 1777405092 | 20.56° C | 82% | 1059.7 hPa | 0 mm | - | 87 W/m² | - |
| 1777404489 | 21.67° C | 78% | 1059.8 hPa | 0 mm | - | 110 W/m² | - |
| 1777403886 | 21.67° C | 80% | 1060.2 hPa | 0 mm | - | 219 W/m² | - |
| 1777403281 | 21.67° C | 78% | 1060 hPa | 0 mm | - | 142 W/m² | - |
| 1777402676 | 21.67° C | 77% | 1060 hPa | 0 mm | - | 199 W/m² | - |
| 1777402075 | 22.78° C | 75% | 1060.2 hPa | 0 mm | - | 620 W/m² | - |
* Rain latest hour (hover to see other rain measurements)
** Current wind speed in m/s (hover to see current wind gust speed)